createdAt,value
2017-08-28T00:02:24.422Z,17.80
2017-08-28T00:04:51.955Z,17.70
2017-08-28T00:07:19.507Z,17.70
2017-08-28T00:09:47.040Z,17.80
2017-08-28T00:12:14.594Z,17.80
2017-08-28T00:14:42.119Z,17.70
2017-08-28T00:17:09.671Z,17.70
2017-08-28T00:19:37.211Z,17.70
2017-08-28T00:22:04.766Z,17.70
2017-08-28T00:24:32.298Z,17.70
2017-08-28T00:26:59.822Z,17.50
2017-08-28T00:29:27.381Z,17.60
2017-08-28T00:31:54.908Z,17.50
2017-08-28T00:34:22.462Z,17.30
2017-08-28T00:36:49.985Z,17.20
2017-08-28T00:39:17.547Z,17.00
2017-08-28T00:41:45.080Z,16.80
2017-08-28T00:44:12.635Z,16.70
2017-08-28T00:46:40.179Z,16.70
2017-08-28T00:49:07.736Z,16.60
2017-08-28T00:51:35.279Z,16.60
2017-08-28T00:54:02.830Z,16.60
2017-08-28T00:56:30.366Z,16.60
2017-08-28T00:58:57.926Z,16.50
2017-08-28T01:01:25.458Z,16.50
2017-08-28T01:03:53.015Z,16.40
2017-08-28T01:06:20.546Z,16.40
2017-08-28T01:08:48.106Z,16.40
2017-08-28T01:11:15.642Z,16.30
2017-08-28T01:13:43.205Z,16.30
2017-08-28T01:16:10.737Z,16.30
2017-08-28T01:18:38.297Z,16.20
2017-08-28T01:21:05.819Z,16.20
2017-08-28T01:23:33.380Z,16.10
2017-08-28T01:26:00.920Z,16.10
2017-08-28T01:28:28.451Z,16.20
2017-08-28T01:30:55.998Z,16.10
2017-08-28T01:33:23.522Z,16.20
2017-08-28T01:35:51.083Z,16.10
2017-08-28T01:38:18.623Z,16.10
2017-08-28T01:40:46.177Z,16.10
2017-08-28T01:43:13.706Z,16.10
2017-08-28T01:45:41.254Z,16.00
2017-08-28T01:48:08.786Z,16.00
2017-08-28T01:50:36.344Z,16.10
2017-08-28T01:53:03.883Z,16.00
2017-08-28T01:55:31.434Z,16.00
2017-08-28T01:57:58.962Z,16.10
2017-08-28T02:00:26.514Z,16.10
2017-08-28T02:02:54.065Z,16.00
2017-08-28T02:05:21.623Z,16.10
2017-08-28T02:07:49.155Z,16.00
2017-08-28T02:10:16.715Z,16.00
2017-08-28T02:12:44.258Z,16.10
2017-08-28T02:15:11.811Z,16.00
2017-08-28T02:17:39.358Z,15.90
2017-08-28T02:20:06.915Z,15.90
2017-08-28T02:22:34.443Z,15.90
2017-08-28T02:25:02.023Z,15.90
2017-08-28T02:27:29.551Z,15.90
2017-08-28T02:29:57.082Z,15.90
2017-08-28T02:32:24.644Z,15.90
2017-08-28T02:34:52.181Z,15.90
2017-08-28T02:37:19.748Z,15.90
2017-08-28T02:39:47.593Z,15.80
2017-08-28T02:42:15.159Z,15.80
2017-08-28T02:44:42.688Z,15.80
2017-08-28T02:47:10.247Z,15.70
2017-08-28T02:49:37.783Z,15.70
2017-08-28T02:52:05.346Z,15.70
2017-08-28T02:54:32.877Z,15.70
2017-08-28T02:57:00.435Z,15.70
2017-08-28T02:59:27.970Z,15.70
2017-08-28T03:01:55.528Z,15.70
2017-08-28T03:04:23.058Z,15.70
2017-08-28T03:06:50.607Z,15.70
2017-08-28T03:09:18.139Z,15.70
2017-08-28T03:11:45.699Z,15.70
2017-08-28T03:14:13.231Z,15.60
2017-08-28T03:16:40.793Z,15.70
2017-08-28T03:19:08.335Z,15.70
2017-08-28T03:21:35.892Z,15.60
2017-08-28T03:24:03.415Z,15.60
2017-08-28T03:26:30.989Z,15.50
2017-08-28T03:28:58.524Z,15.50
2017-08-28T03:31:26.063Z,15.50
2017-08-28T03:33:53.618Z,15.50
2017-08-28T03:36:21.147Z,15.60
2017-08-28T03:38:48.698Z,15.50
2017-08-28T03:41:16.230Z,15.50
2017-08-28T03:43:43.786Z,15.50
2017-08-28T03:46:11.324Z,15.70
2017-08-28T03:48:38.878Z,15.80
2017-08-28T03:51:06.432Z,15.80
2017-08-28T03:53:34.010Z,15.70
2017-08-28T03:56:01.538Z,15.60
2017-08-28T03:58:29.106Z,15.50
2017-08-28T04:00:56.638Z,15.40
2017-08-28T04:03:24.195Z,15.50
2017-08-28T04:05:51.721Z,15.50
2017-08-28T04:08:19.275Z,15.60
2017-08-28T04:10:46.812Z,15.70
2017-08-28T04:13:14.378Z,15.70
2017-08-28T04:15:41.906Z,15.80
2017-08-28T04:18:09.464Z,15.80
2017-08-28T04:23:11.107Z,16.00
2017-08-28T04:25:38.643Z,15.90
2017-08-28T04:28:06.558Z,15.70
2017-08-28T04:30:34.130Z,15.70
2017-08-28T04:33:01.654Z,15.80
2017-08-28T04:35:29.215Z,15.80
2017-08-28T04:37:56.814Z,16.10
2017-08-28T04:40:24.368Z,16.20
2017-08-28T04:42:51.897Z,16.20
2017-08-28T04:45:19.466Z,16.20
2017-08-28T04:47:47.002Z,16.30
2017-08-28T04:50:15.027Z,16.30
2017-08-28T04:52:42.562Z,16.40
2017-08-28T04:55:10.115Z,16.40
2017-08-28T04:57:37.663Z,16.30
2017-08-28T05:00:05.225Z,16.40
2017-08-28T05:02:32.787Z,16.30
2017-08-28T05:05:00.342Z,16.30
2017-08-28T05:07:27.883Z,16.40
2017-08-28T05:09:55.441Z,16.50
2017-08-28T05:12:23.288Z,16.40
2017-08-28T05:14:50.927Z,16.30
2017-08-28T05:17:18.462Z,16.30
2017-08-28T05:19:46.010Z,16.20
2017-08-28T05:22:13.544Z,16.10
2017-08-28T05:24:41.091Z,16.10
2017-08-28T05:27:08.622Z,16.10
2017-08-28T05:29:36.179Z,16.20
2017-08-28T05:32:03.713Z,16.20
2017-08-28T05:34:31.243Z,16.20
2017-08-28T05:36:58.791Z,16.10
2017-08-28T05:39:26.321Z,16.00
2017-08-28T05:41:53.879Z,16.00
2017-08-28T05:44:21.415Z,16.00
2017-08-28T05:46:48.966Z,16.00
2017-08-28T05:49:16.489Z,16.10
2017-08-28T05:51:44.051Z,16.10
2017-08-28T05:54:11.588Z,16.10
2017-08-28T05:56:39.142Z,16.10
2017-08-28T05:59:06.683Z,16.10
2017-08-28T06:01:34.238Z,16.20
2017-08-28T06:04:01.770Z,16.30
2017-08-28T06:06:29.322Z,16.40
2017-08-28T06:08:56.863Z,16.40
2017-08-28T06:11:24.422Z,16.40
2017-08-28T06:13:51.945Z,16.40
2017-08-28T06:16:19.498Z,16.40
2017-08-28T06:18:47.034Z,16.50
2017-08-28T06:21:14.591Z,16.60
2017-08-28T06:23:42.123Z,16.70
2017-08-28T06:26:09.682Z,16.80
2017-08-28T06:28:37.215Z,16.90
2017-08-28T06:31:04.772Z,17.00
2017-08-28T06:33:32.299Z,17.20
2017-08-28T06:35:59.826Z,17.30
2017-08-28T06:38:27.378Z,17.40
2017-08-28T06:40:54.917Z,17.50
2017-08-28T06:43:22.471Z,17.50
2017-08-28T06:45:50.000Z,17.60
2017-08-28T06:48:17.566Z,17.60
2017-08-28T06:50:45.103Z,17.90
2017-08-28T06:53:12.685Z,18.00
2017-08-28T06:55:40.223Z,18.00
2017-08-28T06:58:07.777Z,18.10
2017-08-28T07:00:36.083Z,18.30
2017-08-28T07:03:03.630Z,18.30
2017-08-28T07:05:31.163Z,18.40
2017-08-28T07:07:58.724Z,18.60
2017-08-28T07:10:26.258Z,18.70
2017-08-28T07:12:53.846Z,18.80
2017-08-28T07:15:21.378Z,18.90
2017-08-28T07:17:48.936Z,18.90
2017-08-28T07:20:16.463Z,19.00
2017-08-28T07:22:44.023Z,19.10
2017-08-28T07:25:11.568Z,19.20
2017-08-28T07:27:39.154Z,19.20
2017-08-28T07:30:06.727Z,19.40
2017-08-28T07:32:34.284Z,19.50
2017-08-28T07:35:02.054Z,19.60
2017-08-28T07:37:29.584Z,19.60
2017-08-28T07:39:57.138Z,19.70
2017-08-28T07:42:24.667Z,19.80
2017-08-28T07:44:52.987Z,19.90
2017-08-28T07:47:20.520Z,19.80
2017-08-28T07:49:48.074Z,20.00
2017-08-28T07:52:15.608Z,20.00
2017-08-28T07:54:43.174Z,20.10
2017-08-28T07:57:10.707Z,20.20
2017-08-28T07:59:38.264Z,20.30
2017-08-28T08:02:05.788Z,20.30
2017-08-28T08:04:33.338Z,20.50
2017-08-28T08:07:00.869Z,20.70
2017-08-28T08:09:28.427Z,20.80
2017-08-28T08:11:55.991Z,20.90
2017-08-28T08:14:23.552Z,21.00
2017-08-28T08:16:51.079Z,21.20
2017-08-28T08:19:18.633Z,21.20
2017-08-28T08:21:46.161Z,21.20
2017-08-28T08:24:13.718Z,21.40
2017-08-28T08:26:41.255Z,21.50
2017-08-28T08:29:08.815Z,21.60
2017-08-28T08:31:36.348Z,21.40
2017-08-28T08:34:09.654Z,21.70
2017-08-28T08:36:37.179Z,21.70
2017-08-28T08:39:04.710Z,21.90
2017-08-28T08:41:32.260Z,22.00
2017-08-28T08:43:59.800Z,22.20
2017-08-28T08:46:27.355Z,22.30
2017-08-28T08:48:54.880Z,22.40
2017-08-28T08:51:22.436Z,22.40
2017-08-28T08:53:49.968Z,22.70
2017-08-28T08:56:17.527Z,22.80
2017-08-28T08:58:45.049Z,23.00
2017-08-28T09:01:12.594Z,23.30
2017-08-28T09:03:40.127Z,23.20
2017-08-28T09:06:07.682Z,23.20
2017-08-28T09:08:35.224Z,23.30
2017-08-28T09:11:02.787Z,23.20
2017-08-28T09:13:30.310Z,23.10
2017-08-28T09:15:57.866Z,23.30
2017-08-28T09:18:25.396Z,23.40
2017-08-28T09:20:52.955Z,23.70
2017-08-28T09:23:20.490Z,23.50
2017-08-28T09:25:48.019Z,23.40
2017-08-28T09:28:15.571Z,23.50
2017-08-28T09:30:43.100Z,23.70
2017-08-28T09:33:10.710Z,23.80
2017-08-28T09:35:38.239Z,24.00
2017-08-28T09:38:05.799Z,23.90
2017-08-28T09:40:33.329Z,24.00
2017-08-28T09:43:00.890Z,24.20
2017-08-28T09:45:28.430Z,24.20
2017-08-28T09:47:55.982Z,24.20
2017-08-28T09:50:23.513Z,24.20
2017-08-28T09:52:51.071Z,24.20
2017-08-28T09:55:18.603Z,24.20
2017-08-28T09:57:46.150Z,24.20
2017-08-28T10:00:13.683Z,24.50
2017-08-28T10:02:41.236Z,24.70
2017-08-28T10:05:08.758Z,24.80
2017-08-28T10:07:36.306Z,24.70
2017-08-28T10:10:03.838Z,24.70
2017-08-28T10:12:31.391Z,24.50
2017-08-28T10:14:58.923Z,24.70
2017-08-28T10:17:26.482Z,24.90
2017-08-28T10:19:54.014Z,24.90
2017-08-28T10:22:21.566Z,24.70
2017-08-28T10:24:49.101Z,24.90
2017-08-28T10:27:16.135Z,24.80
2017-08-28T10:29:43.697Z,24.80
2017-08-28T10:32:11.227Z,25.00
2017-08-28T10:34:38.774Z,25.10
2017-08-28T10:37:06.303Z,25.20
2017-08-28T10:39:33.860Z,25.40
2017-08-28T10:42:01.386Z,25.20
2017-08-28T10:44:28.950Z,25.40
2017-08-28T10:46:56.486Z,25.50
2017-08-28T10:49:24.048Z,25.60
2017-08-28T10:51:51.587Z,25.20
2017-08-28T10:54:19.906Z,25.50
2017-08-28T10:56:47.431Z,25.50
2017-08-28T10:59:14.986Z,25.50
2017-08-28T11:01:42.518Z,25.50
2017-08-28T11:04:10.071Z,25.40
2017-08-28T11:06:37.601Z,25.30
2017-08-28T11:09:05.154Z,25.40
2017-08-28T11:11:32.675Z,25.50
2017-08-28T11:14:00.240Z,25.80
2017-08-28T11:16:27.794Z,25.70
2017-08-28T11:18:55.351Z,26.00
2017-08-28T11:21:22.875Z,26.00
2017-08-28T11:23:50.398Z,25.90
2017-08-28T11:26:17.968Z,26.00
2017-08-28T11:28:45.494Z,26.20
2017-08-28T11:31:13.050Z,26.30
2017-08-28T11:33:40.579Z,26.20
2017-08-28T11:36:08.137Z,26.20
2017-08-28T11:38:35.675Z,26.20
2017-08-28T11:41:03.234Z,25.90
2017-08-28T11:43:30.754Z,26.10
2017-08-28T11:45:58.311Z,26.10
2017-08-28T11:48:25.843Z,26.10
2017-08-28T11:50:53.391Z,26.30
2017-08-28T11:53:20.914Z,26.10
2017-08-28T11:55:48.460Z,26.50
2017-08-28T11:58:15.988Z,26.60
2017-08-28T12:00:43.535Z,26.60
2017-08-28T12:03:11.069Z,26.20
2017-08-28T12:05:38.619Z,25.90
2017-08-28T12:08:06.149Z,26.00
2017-08-28T12:10:33.700Z,26.20
2017-08-28T12:13:01.227Z,26.60
2017-08-28T12:15:28.774Z,26.60
2017-08-28T12:17:56.309Z,26.70
2017-08-28T12:20:23.853Z,26.60
2017-08-28T12:22:51.383Z,26.60
2017-08-28T12:25:18.915Z,26.50
2017-08-28T12:27:46.464Z,26.70
2017-08-28T12:30:13.999Z,27.00
2017-08-28T12:32:41.566Z,27.10
2017-08-28T12:35:09.102Z,26.90
2017-08-28T12:37:36.655Z,26.60
2017-08-28T12:40:04.174Z,26.90
2017-08-28T12:42:31.731Z,26.90
2017-08-28T12:44:59.266Z,27.00
2017-08-28T12:47:26.821Z,26.90
2017-08-28T12:49:54.351Z,27.00
2017-08-28T12:52:21.911Z,26.80
2017-08-28T12:54:49.450Z,26.70
2017-08-28T12:57:16.997Z,27.00
2017-08-28T12:59:44.518Z,26.70
2017-08-28T13:02:12.066Z,26.40
2017-08-28T13:04:39.586Z,26.40
2017-08-28T13:07:07.139Z,26.70
2017-08-28T13:09:34.666Z,27.10
2017-08-28T13:12:02.224Z,27.20
2017-08-28T13:14:29.752Z,27.30
2017-08-28T13:16:57.306Z,27.40
2017-08-28T13:19:24.835Z,27.20
2017-08-28T13:21:52.378Z,27.20
2017-08-28T13:24:19.903Z,27.50
2017-08-28T13:26:47.437Z,27.60
2017-08-28T13:29:14.988Z,27.70
2017-08-28T13:31:42.516Z,27.60
2017-08-28T13:34:10.070Z,27.60
2017-08-28T13:36:37.599Z,27.40
2017-08-28T13:39:05.147Z,27.40
2017-08-28T13:41:32.670Z,27.00
2017-08-28T13:44:00.226Z,27.20
2017-08-28T13:46:27.760Z,27.30
2017-08-28T13:48:55.306Z,27.30
2017-08-28T13:51:22.830Z,27.50
2017-08-28T13:53:50.378Z,27.50
2017-08-28T13:56:17.911Z,27.30
2017-08-28T13:58:45.454Z,27.20
2017-08-28T14:01:12.979Z,27.30
2017-08-28T14:03:40.534Z,27.30
2017-08-28T14:06:08.063Z,27.50
2017-08-28T14:08:35.634Z,27.40
2017-08-28T14:11:03.161Z,27.50
2017-08-28T14:13:30.721Z,27.50
2017-08-28T14:15:58.242Z,27.80
2017-08-28T14:18:25.796Z,27.80
2017-08-28T14:20:53.323Z,27.70
2017-08-28T14:23:20.883Z,27.80
2017-08-28T14:25:48.409Z,27.50
2017-08-28T14:28:15.936Z,27.70
2017-08-28T14:30:43.499Z,27.80
2017-08-28T14:33:11.027Z,27.70
2017-08-28T14:35:38.573Z,27.70
2017-08-28T14:38:06.095Z,27.60
2017-08-28T14:40:33.639Z,27.30
2017-08-28T14:43:01.167Z,27.40
2017-08-28T14:45:28.710Z,27.50
2017-08-28T14:47:56.242Z,27.50
2017-08-28T14:50:23.790Z,27.70
2017-08-28T14:52:51.314Z,27.70
2017-08-28T14:55:18.867Z,27.60
2017-08-28T14:57:46.386Z,27.60
2017-08-28T15:00:13.935Z,27.20
2017-08-28T15:02:41.455Z,27.10
2017-08-28T15:05:09.022Z,27.30
2017-08-28T15:07:36.551Z,27.30
2017-08-28T15:10:04.099Z,27.50
2017-08-28T15:12:31.626Z,27.40
2017-08-28T15:14:59.177Z,27.50
2017-08-28T15:17:26.705Z,27.50
2017-08-28T15:19:54.250Z,27.40
2017-08-28T15:22:21.771Z,27.40
2017-08-28T15:24:49.331Z,27.30
2017-08-28T15:27:16.882Z,27.40
2017-08-28T15:29:44.416Z,27.30
2017-08-28T15:32:11.975Z,27.40
2017-08-28T15:34:39.495Z,27.30
2017-08-28T15:37:07.046Z,27.30
2017-08-28T15:39:34.571Z,27.30
2017-08-28T15:42:02.123Z,27.20
2017-08-28T15:44:29.656Z,27.20
2017-08-28T15:46:57.219Z,27.30
2017-08-28T15:49:24.748Z,27.20
2017-08-28T15:51:52.299Z,27.30
2017-08-28T15:54:19.830Z,27.30
2017-08-28T15:56:47.379Z,27.30
2017-08-28T15:59:14.911Z,27.20
2017-08-28T16:01:42.462Z,27.20
2017-08-28T16:04:09.991Z,27.20
2017-08-28T16:06:37.540Z,27.10
2017-08-28T16:09:05.084Z,27.10
2017-08-28T16:11:33.401Z,27.10
2017-08-28T16:14:00.936Z,27.10
2017-08-28T16:16:28.491Z,27.10
2017-08-28T16:18:56.023Z,27.10
2017-08-28T16:21:23.575Z,27.00
2017-08-28T16:23:51.111Z,26.90
2017-08-28T16:26:18.678Z,26.80
2017-08-28T16:28:46.215Z,26.80
2017-08-28T16:31:13.740Z,26.70
2017-08-28T16:33:41.307Z,26.70
2017-08-28T16:36:08.851Z,26.70
2017-08-28T16:38:37.172Z,26.60
2017-08-28T16:41:04.699Z,26.60
2017-08-28T16:43:32.276Z,26.50
2017-08-28T16:45:59.809Z,26.50
2017-08-28T16:48:27.364Z,26.50
2017-08-28T16:50:55.666Z,26.30
2017-08-28T16:53:23.219Z,26.20
2017-08-28T16:55:50.766Z,26.10
2017-08-28T16:58:18.316Z,26.00
2017-08-28T17:00:46.030Z,26.00
2017-08-28T17:03:13.589Z,25.90
2017-08-28T17:05:41.124Z,25.80
2017-08-28T17:08:08.671Z,25.70
2017-08-28T17:10:36.967Z,25.50
2017-08-28T17:13:04.523Z,25.50
2017-08-28T17:15:32.058Z,25.40
2017-08-28T17:17:59.615Z,25.40
2017-08-28T17:20:27.143Z,25.20
2017-08-28T17:22:54.739Z,25.10
2017-08-28T17:25:22.275Z,24.90
2017-08-28T17:27:49.823Z,24.80
2017-08-28T17:30:17.356Z,24.60
2017-08-28T17:32:44.931Z,24.40
2017-08-28T17:35:12.459Z,24.20
2017-08-28T17:37:39.991Z,24.10
2017-08-28T17:40:07.563Z,23.90
2017-08-28T17:42:35.083Z,23.70
2017-08-28T17:45:02.639Z,23.70
2017-08-28T17:47:30.171Z,23.60
2017-08-28T17:49:57.718Z,23.30
2017-08-28T17:52:25.250Z,23.10
2017-08-28T17:54:52.811Z,22.90
2017-08-28T17:57:20.339Z,22.70
2017-08-28T17:59:47.893Z,22.70
2017-08-28T18:02:15.419Z,22.50
2017-08-28T18:04:42.970Z,22.50
2017-08-28T18:07:10.499Z,22.40
2017-08-28T18:09:38.042Z,22.30
2017-08-28T18:12:05.567Z,22.20
2017-08-28T18:14:33.115Z,22.10
2017-08-28T18:17:00.639Z,22.00
2017-08-28T18:19:28.186Z,21.90
2017-08-28T18:21:55.714Z,21.90
2017-08-28T18:24:23.267Z,21.90
2017-08-28T18:26:50.795Z,21.70
2017-08-28T18:29:18.356Z,21.60
2017-08-28T18:31:45.878Z,21.60
2017-08-28T18:34:13.439Z,21.60
2017-08-28T18:36:41.011Z,21.60
2017-08-28T18:39:08.556Z,21.60
2017-08-28T18:41:36.111Z,21.50
2017-08-28T18:44:03.644Z,21.60
2017-08-28T18:46:31.193Z,21.60
2017-08-28T18:48:58.732Z,21.50
2017-08-28T18:51:26.290Z,21.50
2017-08-28T18:53:53.831Z,21.40
2017-08-28T18:56:21.389Z,21.40
2017-08-28T18:58:48.928Z,21.30
2017-08-28T19:01:16.471Z,21.20
2017-08-28T19:03:44.008Z,21.10
2017-08-28T19:06:11.557Z,21.00
2017-08-28T19:08:39.079Z,21.00
2017-08-28T19:11:06.626Z,20.90
2017-08-28T19:13:34.154Z,20.90
2017-08-28T19:16:01.708Z,20.90
2017-08-28T19:18:29.240Z,20.80
2017-08-28T19:20:56.791Z,20.70
2017-08-28T19:23:24.319Z,20.70
2017-08-28T19:25:51.887Z,20.60
2017-08-28T19:28:19.423Z,20.40
2017-08-28T19:30:46.959Z,20.40
2017-08-28T19:33:14.521Z,20.40
2017-08-28T19:35:42.073Z,20.30
2017-08-28T19:38:09.626Z,20.30
2017-08-28T19:40:37.156Z,20.20
2017-08-28T19:43:04.706Z,20.10
2017-08-28T19:45:32.238Z,20.10
2017-08-28T19:47:59.811Z,20.20
2017-08-28T19:50:27.346Z,20.20
2017-08-28T19:52:54.902Z,20.20
2017-08-28T19:55:23.530Z,20.30
2017-08-28T19:57:51.079Z,20.30
2017-08-28T20:00:18.607Z,20.20
2017-08-28T20:02:54.702Z,20.10
2017-08-28T20:05:22.232Z,19.90
2017-08-28T20:07:49.796Z,19.90
2017-08-28T20:10:17.320Z,20.00
2017-08-28T20:12:44.881Z,20.10
2017-08-28T20:15:12.403Z,20.10
2017-08-28T20:17:39.968Z,20.00
2017-08-28T20:20:07.498Z,20.10
2017-08-28T20:22:35.055Z,20.00
2017-08-28T20:25:02.592Z,19.90
2017-08-28T20:27:30.156Z,19.80
2017-08-28T20:29:57.687Z,19.70
2017-08-28T20:32:25.254Z,19.70
2017-08-28T20:34:52.783Z,19.70
2017-08-28T20:37:20.315Z,19.70
2017-08-28T20:39:47.883Z,19.70
2017-08-28T20:42:15.423Z,19.70
2017-08-28T20:44:42.992Z,19.60
2017-08-28T20:47:10.541Z,19.50
2017-08-28T20:49:38.095Z,19.50
2017-08-28T20:52:05.639Z,19.50
2017-08-28T20:54:33.191Z,19.50
2017-08-28T20:57:00.722Z,19.50
2017-08-28T20:59:28.278Z,19.50
2017-08-28T21:01:55.807Z,19.50
2017-08-28T21:04:23.359Z,19.40
2017-08-28T21:06:50.895Z,19.30
2017-08-28T21:09:18.445Z,19.30
2017-08-28T21:11:45.986Z,19.20
2017-08-28T21:14:13.530Z,19.30
2017-08-28T21:16:41.054Z,19.40
2017-08-28T21:19:08.603Z,19.40
2017-08-28T21:21:36.139Z,19.30
2017-08-28T21:24:03.699Z,19.20
2017-08-28T21:26:31.245Z,19.10
2017-08-28T21:28:58.798Z,19.10
2017-08-28T21:31:26.335Z,19.00
2017-08-28T21:33:53.903Z,19.00
2017-08-28T21:36:21.442Z,19.00
2017-08-28T21:38:49.020Z,19.00
2017-08-28T21:41:16.554Z,19.10
2017-08-28T21:43:44.085Z,19.10
2017-08-28T21:46:11.654Z,19.10
2017-08-28T21:48:39.179Z,19.20
2017-08-28T21:51:06.733Z,19.40
2017-08-28T21:53:34.266Z,19.40
2017-08-28T21:56:01.819Z,19.40
2017-08-28T21:58:29.362Z,19.30
2017-08-28T22:00:56.910Z,19.30
2017-08-28T22:03:24.443Z,19.30
2017-08-28T22:05:52.003Z,19.30
2017-08-28T22:08:19.540Z,19.10
2017-08-28T22:10:47.103Z,19.10
2017-08-28T22:13:14.630Z,19.00
2017-08-28T22:15:42.178Z,19.00
2017-08-28T22:18:09.710Z,18.90
2017-08-28T22:20:37.275Z,18.80
2017-08-28T22:23:07.086Z,18.80
2017-08-28T22:25:51.419Z,18.70
2017-08-28T22:28:18.950Z,18.70
2017-08-28T22:51:21.431Z,18.10
2017-08-28T22:53:48.963Z,18.10
2017-08-28T22:56:16.518Z,18.10
2017-08-28T22:58:44.054Z,18.10
2017-08-28T23:01:11.611Z,18.10
2017-08-28T23:03:39.143Z,18.10
2017-08-28T23:06:06.694Z,18.20
2017-08-28T23:08:34.242Z,18.20
2017-08-28T23:11:01.769Z,18.10
2017-08-28T23:13:29.327Z,18.00
2017-08-28T23:15:56.859Z,18.00
2017-08-28T23:18:24.418Z,18.00
2017-08-28T23:20:51.950Z,17.90
2017-08-28T23:23:19.503Z,17.90
2017-08-28T23:25:47.038Z,17.80
2017-08-28T23:28:14.595Z,17.80
2017-08-28T23:30:42.131Z,17.60
2017-08-28T23:33:09.691Z,17.60
2017-08-28T23:35:37.217Z,17.50
2017-08-28T23:38:04.779Z,17.50
2017-08-28T23:40:32.308Z,17.40
2017-08-28T23:42:59.874Z,17.40
2017-08-28T23:45:27.403Z,17.40
2017-08-28T23:47:54.962Z,17.30
2017-08-28T23:50:22.494Z,17.20
2017-08-28T23:52:50.050Z,17.20
2017-08-28T23:55:17.591Z,17.20
2017-08-28T23:57:45.147Z,17.20
